Magog, Canada
Current Conditions -  °F | °C
As of 4:55 AM on Wednesday 26 Nov 2014 (Local Time) from KEFK Reporting Station
Overcast Overcast  
Wind Chill: 25°   Ceiling: 3800
Heat Index: 32°   Visibility: 10mi
Dew Point: 20°   Wind: 8mph
Humidity: 61%   Direction: 270°W
Pressure: 30.2"   Gusts: NA
Location:  45.26°N, 72.15°W
Report Text: KEFK 260955Z AUTO 27007KT 10SM OVC038 00/M06 A3020 RMK AO2 T00021065
Loading
Personal Weather Stations






























Interactive Weather Map New forecast layout! Learn more

10-Day Weather Forecast

Advertisements
Track Severe Weather on mobile